Terminal Aerodrome Forecast
Issued by NWS

Home | Current Version | Previous Version | Text Only | Print | Product List | Glossary On
Versions: 1 2 3 4 5 6 7 8 9 10 11 12 13 14 15 16 17 18 19 20 21
000
FTUS41 KCAR 292328
TAFBHB
TAF
KBHB 292328Z 3000/3024 VRB03KT P6SM SCT250
     FM300400 VRB03KT 1SM BR SCT003
     FM300700 VRB03KT 1SM BR BKN001
     FM301400 19008KT P6SM SCT250
      AMD LTD TO CLD VIS AND WIND=

USA.gov is the U.S. government's official web portal to all federal, state and local government web resources and services.